createdAt,value
2023-03-13T01:02:50.794Z,0.51
2023-03-13T01:03:50.710Z,0.51
2023-03-13T01:04:50.770Z,0.52
2023-03-13T01:05:50.836Z,0.51
2023-03-13T01:06:50.917Z,0.51
2023-03-13T01:07:51.088Z,0.52
2023-03-13T01:08:51.065Z,0.52
2023-03-13T01:09:51.109Z,0.51
2023-03-13T01:10:51.161Z,0.51
2023-03-13T01:11:51.245Z,0.51
2023-03-13T01:12:51.301Z,0.52
2023-03-13T01:13:51.362Z,0.52
2023-03-13T01:14:51.437Z,0.52
2023-03-13T01:15:51.560Z,0.51
2023-03-13T01:16:51.558Z,0.51
2023-03-13T01:17:51.620Z,0.52
2023-03-13T01:18:51.685Z,0.53
2023-03-13T01:19:51.751Z,0.51
2023-03-13T01:20:51.859Z,0.52
2023-03-13T01:21:51.872Z,0.51
2023-03-13T01:22:51.942Z,0.51
2023-03-13T01:23:52.013Z,0.51
2023-03-13T01:24:52.066Z,0.51
2023-03-13T01:25:52.141Z,0.52
2023-03-13T01:26:52.209Z,0.52
2023-03-13T01:27:52.275Z,0.51
2023-03-13T01:28:52.376Z,0.52
2023-03-13T01:29:52.502Z,0.51
2023-03-13T01:30:52.588Z,0.51
2023-03-13T01:31:52.562Z,0.51
2023-03-13T01:32:52.754Z,0.51
2023-03-13T01:33:52.703Z,0.51
2023-03-13T01:34:52.790Z,0.51
2023-03-13T01:35:52.953Z,0.51
2023-03-13T01:36:52.967Z,0.52
2023-03-13T01:37:52.983Z,0.52
2023-03-13T01:38:53.039Z,0.51
2023-03-13T01:39:53.095Z,0.53
2023-03-13T01:40:53.160Z,0.51
2023-03-13T01:41:53.763Z,0.52
2023-03-13T01:42:53.286Z,0.51
2023-03-13T01:43:53.353Z,0.52
2023-03-13T01:44:53.417Z,0.51
2023-03-13T01:45:53.762Z,0.50
2023-03-13T01:46:53.524Z,0.51
2023-03-13T01:47:53.576Z,0.51
2023-03-13T01:48:53.629Z,0.51
2023-03-13T01:49:53.688Z,0.50
2023-03-13T01:50:53.751Z,0.51
2023-03-13T01:51:53.806Z,0.51
2023-03-13T01:52:53.855Z,0.52
2023-03-13T02:40:13.923Z,0.53
2023-03-13T02:49:14.032Z,0.51
2023-03-13T02:51:14.064Z,0.52
2023-03-13T02:52:14.082Z,0.52
2023-03-13T02:53:14.090Z,0.52
2023-03-13T02:54:14.108Z,0.52
2023-03-13T02:55:14.115Z,0.53
2023-03-13T02:56:14.123Z,0.52
2023-03-13T02:57:14.152Z,0.51
2023-03-13T02:58:14.226Z,0.51
2023-03-13T02:59:14.176Z,0.51
2023-03-13T03:00:14.173Z,0.51
2023-03-13T03:01:14.285Z,0.50
2023-03-13T03:02:14.212Z,0.51
2023-03-13T03:03:14.220Z,0.52
2023-03-13T03:04:14.217Z,0.51
2023-03-13T03:05:14.228Z,0.52
2023-03-13T03:06:14.243Z,0.50
2023-03-13T03:07:14.272Z,0.52
2023-03-13T03:08:14.259Z,0.51
2023-03-13T03:09:14.264Z,0.51
2023-03-13T03:10:14.278Z,0.51
2023-03-13T03:11:14.288Z,0.52
2023-03-13T03:12:14.312Z,0.51
2023-03-13T03:13:14.318Z,0.53
2023-03-13T03:14:14.332Z,0.51
2023-03-13T03:15:14.329Z,0.52
2023-03-13T03:16:14.368Z,0.51
2023-03-13T03:17:14.364Z,0.51
2023-03-13T03:18:14.357Z,0.51
2023-03-13T03:19:14.373Z,0.51
2023-03-13T03:20:14.389Z,0.50
2023-03-13T03:21:15.328Z,0.51
2023-03-13T03:22:14.392Z,0.51
2023-03-13T03:23:14.408Z,0.51
2023-03-13T03:24:14.426Z,0.51
2023-03-13T03:25:14.468Z,0.51
2023-03-13T03:26:14.527Z,0.52
2023-03-13T03:27:14.563Z,0.51
2023-03-13T03:28:15.323Z,0.51
2023-03-13T03:29:14.630Z,0.52
2023-03-13T03:30:14.664Z,0.51
2023-03-13T03:31:14.731Z,0.52
2023-03-13T03:32:14.741Z,0.51
2023-03-13T03:33:14.778Z,0.51
2023-03-13T03:34:14.873Z,0.52
2023-03-13T03:35:14.867Z,0.51
2023-03-13T03:36:15.044Z,0.51
2023-03-13T03:37:14.921Z,0.51
2023-03-13T03:38:14.958Z,0.51
2023-03-13T03:39:15.007Z,0.51
2023-03-13T03:40:15.037Z,0.51
2023-03-13T03:41:15.079Z,0.51
2023-03-13T03:42:15.113Z,0.52
2023-03-13T03:43:15.159Z,0.51
2023-03-13T03:44:15.180Z,0.51
2023-03-13T03:45:15.248Z,0.51
2023-03-13T03:46:15.322Z,0.51
2023-03-13T03:47:15.419Z,0.51
2023-03-13T03:48:15.415Z,0.51
2023-03-13T03:49:15.365Z,0.51
2023-03-13T03:50:15.391Z,0.51
2023-03-13T03:51:15.501Z,0.52
2023-03-13T03:52:15.462Z,0.52
2023-03-13T03:53:16.328Z,0.51
2023-03-13T03:54:15.533Z,0.51
2023-03-13T03:55:15.567Z,0.52
2023-03-13T03:56:15.603Z,0.51
2023-03-13T03:57:15.650Z,0.51
2023-03-13T03:58:15.686Z,0.51
2023-03-13T04:00:15.836Z,0.51
2023-03-13T04:01:15.871Z,0.52
2023-03-13T04:02:15.953Z,0.51
2023-03-13T04:03:16.003Z,0.51
2023-03-13T04:04:16.034Z,0.51
2023-03-13T04:05:16.049Z,0.51
2023-03-13T04:06:16.090Z,0.51
2023-03-13T04:07:16.127Z,0.51
2023-03-13T04:08:16.180Z,0.50
2023-03-13T04:09:16.218Z,0.50
2023-03-13T04:10:16.259Z,0.51
2023-03-13T04:11:16.349Z,0.51
2023-03-13T04:12:16.329Z,0.51
2023-03-13T04:13:16.379Z,0.51
2023-03-13T04:14:16.421Z,0.51
2023-03-13T04:15:16.463Z,0.51
2023-03-13T04:16:16.524Z,0.51
2023-03-13T04:17:16.518Z,0.51
2023-03-13T04:18:16.566Z,0.51
2023-03-13T04:19:16.594Z,0.51
2023-03-13T04:20:16.632Z,0.51
2023-03-13T04:21:16.674Z,0.52
2023-03-13T04:22:16.713Z,0.51
2023-03-13T04:55:18.102Z,0.52
2023-03-13T04:56:18.141Z,0.51
2023-03-13T04:57:18.186Z,0.51
2023-03-13T04:58:18.240Z,0.50
2023-03-13T04:59:18.260Z,0.52
2023-03-13T05:00:18.386Z,0.51
2023-03-13T05:01:18.373Z,0.50
2023-03-13T05:02:18.390Z,0.50
2023-03-13T05:03:18.429Z,0.51
2023-03-13T05:04:18.488Z,0.50
2023-03-13T05:05:18.505Z,0.51
2023-03-13T05:06:18.545Z,0.51
2023-03-13T05:07:18.573Z,0.51
2023-03-13T05:08:18.603Z,0.51
2023-03-13T05:09:18.645Z,0.51
2023-03-13T05:10:18.680Z,0.51
2023-03-13T05:11:18.736Z,0.51
2023-03-13T05:12:18.776Z,0.52
2023-03-13T05:13:18.855Z,0.52
2023-03-13T05:14:18.861Z,0.51
2023-03-13T05:15:18.911Z,0.51
2023-03-13T05:16:19.002Z,0.51
2023-03-13T05:17:18.991Z,0.51
2023-03-13T05:18:19.030Z,0.50
2023-03-13T05:19:19.048Z,0.50
2023-03-13T05:20:19.110Z,0.51
2023-03-13T05:21:19.127Z,0.52
2023-03-13T05:22:19.165Z,0.51
2023-03-13T05:23:19.201Z,0.51
2023-03-13T05:24:19.253Z,0.50
2023-03-13T05:25:19.284Z,0.50
2023-03-13T05:26:19.321Z,0.51
2023-03-13T05:27:19.370Z,0.51
2023-03-13T05:28:19.398Z,0.50
2023-03-13T05:29:19.516Z,0.50
2023-03-13T05:30:19.476Z,0.51
2023-03-13T05:31:19.570Z,0.51
2023-03-13T05:32:19.557Z,0.51
2023-03-13T05:33:19.596Z,0.51
2023-03-13T05:34:19.686Z,0.51
2023-03-13T05:35:19.662Z,0.51
2023-03-13T05:36:19.710Z,0.51
2023-03-13T05:37:19.746Z,0.51
2023-03-13T05:38:19.793Z,0.51
2023-03-13T05:39:19.847Z,0.51
2023-03-13T05:40:19.864Z,0.51
2023-03-13T05:41:19.911Z,0.50
2023-03-13T05:42:19.942Z,0.51
2023-03-13T05:43:19.988Z,0.52
2023-03-13T05:44:20.041Z,0.51
2023-03-13T05:45:20.070Z,0.50
2023-03-13T05:46:20.117Z,0.52
2023-03-13T05:47:20.861Z,0.52
2023-03-13T05:48:20.186Z,0.52
2023-03-13T05:49:20.229Z,0.52
2023-03-13T05:50:20.264Z,0.52
2023-03-13T05:51:20.289Z,0.51
2023-03-13T05:52:20.351Z,0.51
2023-03-13T05:53:20.373Z,0.51
2023-03-13T05:54:20.404Z,0.51
2023-03-13T05:55:20.497Z,0.51
2023-03-13T05:56:20.478Z,0.50
2023-03-13T05:57:20.537Z,0.51
2023-03-13T05:58:20.562Z,0.51
2023-03-13T05:59:20.595Z,0.51
2023-03-13T06:00:20.638Z,0.51
2023-03-13T06:01:21.368Z,0.51
2023-03-13T06:02:20.730Z,0.52
2023-03-13T06:03:21.397Z,0.52
2023-03-13T06:04:20.967Z,0.51
2023-03-13T06:05:20.845Z,0.51
2023-03-13T06:06:20.950Z,0.51
2023-03-13T06:07:20.935Z,0.51
2023-03-13T06:08:21.859Z,0.51
2023-03-13T06:09:21.014Z,0.51
2023-03-13T06:10:21.067Z,0.51
2023-03-13T06:11:21.112Z,0.51
2023-03-13T06:12:21.152Z,0.51
2023-03-13T06:13:21.204Z,0.51
2023-03-13T06:14:21.232Z,0.51
2023-03-13T06:15:21.259Z,0.50
2023-03-13T06:16:21.391Z,0.51
2023-03-13T06:17:21.324Z,0.51
2023-03-13T06:18:21.403Z,0.51
2023-03-13T06:19:21.413Z,0.52
2023-03-13T06:20:21.448Z,0.51
2023-03-13T06:21:21.479Z,0.51
2023-03-13T06:22:21.509Z,0.52
2023-03-13T06:23:21.550Z,0.52
2023-03-13T06:24:21.589Z,0.51
2023-03-13T06:25:21.607Z,0.52
2023-03-13T06:26:21.644Z,0.54
2023-03-13T06:27:21.667Z,0.57
2023-03-13T06:28:21.689Z,0.62
2023-03-13T06:29:21.728Z,0.63
2023-03-13T06:30:21.760Z,0.67
2023-03-13T06:31:21.925Z,0.70
2023-03-13T06:32:21.930Z,0.76
2023-03-13T06:33:21.899Z,0.81
2023-03-13T06:34:21.872Z,0.91
2023-03-13T06:35:21.898Z,0.94
2023-03-13T06:36:22.982Z,0.99
2023-03-13T06:37:21.926Z,1.07
2023-03-13T06:38:21.942Z,1.13
2023-03-13T06:39:21.957Z,1.20
2023-03-13T06:40:21.981Z,1.31
2023-03-13T06:41:22.003Z,1.42
2023-03-13T06:42:22.880Z,1.51
2023-03-13T06:43:22.033Z,1.65
2023-03-13T06:44:22.116Z,1.76
2023-03-13T06:45:22.058Z,1.87
2023-03-13T06:47:22.075Z,2.12
2023-03-13T06:48:22.074Z,2.25
2023-03-13T06:49:22.069Z,2.27
2023-03-13T06:50:22.065Z,2.31
2023-03-13T06:51:22.903Z,2.41
2023-03-13T06:52:26.502Z,2.62
2023-03-13T06:53:23.050Z,2.28
2023-03-13T06:54:22.872Z,2.40
2023-03-13T06:55:22.054Z,2.67
2023-03-13T06:56:22.045Z,3.22
2023-03-13T06:57:22.054Z,4.20
2023-03-13T06:58:32.091Z,4.41
2023-03-13T06:59:23.052Z,4.42
2023-03-13T07:00:22.050Z,4.48
2023-03-13T07:01:22.123Z,4.59
2023-03-13T07:02:22.051Z,5.01
2023-03-13T07:03:22.058Z,5.56
2023-03-13T07:04:22.848Z,5.77
2023-03-13T07:05:22.052Z,5.96
2023-03-13T07:06:22.051Z,5.94
2023-03-13T07:07:31.272Z,6.18
2023-03-13T07:08:23.041Z,6.20
2023-03-13T07:09:22.043Z,6.27
2023-03-13T07:10:22.430Z,6.48
2023-03-13T07:11:22.038Z,7.27
2023-03-13T07:12:22.080Z,8.52
2023-03-13T07:13:22.887Z,9.84
2023-03-13T07:14:22.017Z,10.27
2023-03-13T07:15:22.021Z,10.74
2023-03-13T07:16:22.035Z,11.33
2023-03-13T07:17:22.031Z,10.57
2023-03-13T07:18:22.068Z,12.16
2023-03-13T07:19:22.047Z,12.37
2023-03-13T07:20:22.126Z,12.43
2023-03-13T07:21:22.076Z,11.50
2023-03-13T07:22:22.166Z,11.09
2023-03-13T07:23:22.097Z,11.03
2023-03-13T07:24:22.933Z,11.00
2023-03-13T07:25:22.106Z,10.99
2023-03-13T07:26:22.131Z,10.94
2023-03-13T07:27:22.220Z,10.89
2023-03-13T07:28:22.309Z,10.91
2023-03-13T07:29:22.174Z,10.75
2023-03-13T07:30:22.215Z,10.64
2023-03-13T07:31:22.294Z,10.52
2023-03-13T07:32:22.313Z,10.37
2023-03-13T07:33:22.216Z,10.36
2023-03-13T07:34:22.225Z,10.09
2023-03-13T07:35:22.219Z,10.21
2023-03-13T07:36:22.266Z,10.07
2023-03-13T07:37:22.235Z,9.92
2023-03-13T07:38:22.256Z,9.79
2023-03-13T07:39:22.265Z,9.76
2023-03-13T07:40:22.260Z,9.54
2023-03-13T07:41:22.293Z,9.59
2023-03-13T07:42:22.281Z,9.43
2023-03-13T07:43:22.341Z,9.38
2023-03-13T07:44:22.312Z,9.23
2023-03-13T07:45:22.323Z,9.20
2023-03-13T07:46:22.383Z,9.06
2023-03-13T07:47:22.359Z,9.06
2023-03-13T07:48:22.372Z,9.09
2023-03-13T07:49:22.395Z,8.86
2023-03-13T07:50:22.426Z,8.71
2023-03-13T07:51:33.500Z,8.76
2023-03-13T07:52:23.416Z,8.78
2023-03-13T07:53:22.494Z,8.76
2023-03-13T07:54:22.418Z,8.73
2023-03-13T07:55:22.403Z,8.75
2023-03-13T07:56:22.411Z,8.53
2023-03-13T07:57:22.416Z,8.41
2023-03-13T07:58:22.402Z,8.17
2023-03-13T07:59:22.409Z,8.18
2023-03-13T08:00:22.411Z,8.16
2023-03-13T08:01:24.304Z,8.07
2023-03-13T08:02:22.496Z,8.25
2023-03-13T08:03:22.456Z,8.04
2023-03-13T08:04:22.418Z,7.93
2023-03-13T08:05:22.423Z,7.90
2023-03-13T08:06:22.429Z,7.74
2023-03-13T08:07:23.400Z,7.72
2023-03-13T08:08:22.437Z,7.76
2023-03-13T08:09:22.434Z,7.57
2023-03-13T08:10:22.530Z,7.59
2023-03-13T08:11:22.447Z,7.62
2023-03-13T08:12:22.446Z,7.45
2023-03-13T08:13:22.451Z,7.36
2023-03-13T08:14:22.454Z,7.30
2023-03-13T08:15:22.455Z,7.30
2023-03-13T08:16:22.515Z,7.14
2023-03-13T08:17:22.473Z,7.08
2023-03-13T08:18:23.323Z,7.03
2023-03-13T08:19:22.492Z,6.97
2023-03-13T08:20:22.494Z,6.86
2023-03-13T08:21:22.505Z,6.73
2023-03-13T08:22:23.401Z,6.84
2023-03-13T08:23:22.530Z,6.72
2023-03-13T08:24:22.535Z,6.61
2023-03-13T08:25:22.541Z,6.60
2023-03-13T08:26:22.539Z,6.49
2023-03-13T08:27:22.550Z,6.35
2023-03-13T08:28:23.618Z,4.72
2023-03-13T08:29:22.587Z,3.58
2023-03-13T08:30:22.582Z,1.17
2023-03-13T08:31:23.104Z,1.95
2023-03-13T08:32:22.665Z,2.19
2023-03-13T08:33:22.690Z,2.07
2023-03-13T08:34:22.763Z,1.87
2023-03-13T08:35:22.718Z,1.75
2023-03-13T08:36:22.673Z,1.64
2023-03-13T08:37:22.692Z,1.42
2023-03-13T08:38:22.714Z,1.30
2023-03-13T08:39:22.752Z,1.17
2023-03-13T08:40:23.397Z,1.10
2023-03-13T08:41:22.747Z,1.07
2023-03-13T08:42:22.757Z,0.98
2023-03-13T08:43:22.778Z,0.97
2023-03-13T08:44:22.930Z,0.90
2023-03-13T08:45:22.796Z,0.90
2023-03-13T08:46:22.895Z,0.84
2023-03-13T08:47:22.831Z,0.79
2023-03-13T08:48:22.840Z,0.71
2023-03-13T08:49:22.856Z,0.67
2023-03-13T08:50:22.961Z,0.63
2023-03-13T08:51:22.894Z,0.61
2023-03-13T08:52:22.904Z,0.59
2023-03-13T08:53:22.917Z,0.55
2023-03-13T08:54:22.952Z,0.56
2023-03-13T08:55:24.519Z,0.52
2023-03-13T08:56:23.126Z,0.51
2023-03-13T08:57:23.157Z,0.51
2023-03-13T08:58:23.192Z,0.50
2023-03-13T08:59:23.257Z,0.50
2023-03-13T09:00:23.302Z,0.50
2023-03-13T09:01:23.370Z,0.50
2023-03-13T09:02:23.543Z,0.50
2023-03-13T09:04:23.929Z,0.50
2023-03-13T09:05:23.564Z,0.51
2023-03-13T09:06:23.622Z,0.51
2023-03-13T09:07:23.659Z,0.50
2023-03-13T09:08:23.703Z,0.50
2023-03-13T10:14:26.174Z,0.74
2023-03-13T10:37:26.604Z,1.88
2023-03-13T10:38:26.516Z,2.02
2023-03-13T10:39:26.496Z,2.20
2023-03-13T10:40:26.487Z,2.34
2023-03-13T10:41:26.501Z,2.52
2023-03-13T10:42:26.543Z,2.52
2023-03-13T10:43:26.587Z,2.69
2023-03-13T10:44:26.484Z,2.65
2023-03-13T10:45:26.498Z,2.68
2023-03-13T10:46:26.522Z,2.64
2023-03-13T10:48:26.497Z,2.58
2023-03-13T10:50:26.529Z,2.59
2023-03-13T10:51:26.493Z,2.51
2023-03-13T10:52:26.505Z,2.38
2023-03-13T10:53:26.524Z,2.37
2023-03-13T10:54:26.522Z,2.36
2023-03-13T10:55:26.513Z,2.35
2023-03-13T10:56:26.517Z,2.42
2023-03-13T10:57:26.571Z,2.44
2023-03-13T10:58:26.520Z,2.29
2023-03-13T10:59:26.530Z,2.20
2023-03-13T11:00:26.523Z,2.25
2023-03-13T11:01:27.440Z,2.20
2023-03-13T11:02:26.740Z,2.27
2023-03-13T11:03:26.671Z,2.29
2023-03-13T11:04:26.543Z,2.25
2023-03-13T11:05:26.529Z,2.17
2023-03-13T11:06:26.541Z,2.19
2023-03-13T11:07:26.543Z,2.15
2023-03-13T11:08:26.632Z,2.07
2023-03-13T11:09:26.535Z,2.08
2023-03-13T11:10:26.542Z,2.03
2023-03-13T11:11:27.450Z,1.69
2023-03-13T11:12:26.534Z,1.87
2023-03-13T11:13:35.974Z,2.02
2023-03-13T11:14:27.545Z,2.02
2023-03-13T11:15:26.577Z,2.03
2023-03-13T11:16:26.605Z,2.03
2023-03-13T11:17:26.567Z,2.06
2023-03-13T11:18:26.525Z,2.04
2023-03-13T11:19:26.578Z,2.09
2023-03-13T11:20:26.639Z,2.07
2023-03-13T11:21:26.526Z,2.06
2023-03-13T11:22:26.650Z,2.08
2023-03-13T11:23:27.572Z,2.07
2023-03-13T11:24:26.629Z,2.05
2023-03-13T11:25:26.737Z,2.12
2023-03-13T11:26:26.629Z,2.08
2023-03-13T11:27:26.767Z,2.09
2023-03-13T11:28:26.723Z,2.09
2023-03-13T11:29:26.817Z,2.11
2023-03-13T11:30:26.845Z,2.11
2023-03-13T11:31:26.940Z,2.09
2023-03-13T11:32:26.972Z,2.06
2023-03-13T11:33:27.007Z,2.09
2023-03-13T11:34:27.041Z,2.06
2023-03-13T11:35:27.952Z,2.09
2023-03-13T11:36:27.147Z,2.08
2023-03-13T11:37:27.186Z,2.05
2023-03-13T11:38:27.269Z,2.06
2023-03-13T11:39:27.298Z,2.08
2023-03-13T11:40:27.330Z,2.10
2023-03-13T11:41:27.437Z,2.10
2023-03-13T11:42:27.447Z,2.10
2023-03-13T11:43:27.511Z,2.08
2023-03-13T11:44:27.574Z,2.09
2023-03-13T11:45:27.997Z,2.08
2023-03-13T11:46:28.347Z,2.02
2023-03-13T11:47:28.096Z,2.03
2023-03-13T11:48:27.746Z,2.07
2023-03-13T11:49:27.801Z,2.09
2023-03-13T11:50:27.861Z,2.04
2023-03-13T11:51:27.931Z,2.01
2023-03-13T11:52:27.976Z,2.02
2023-03-13T11:53:28.021Z,2.04
2023-03-13T11:54:28.074Z,2.04
2023-03-13T11:55:28.501Z,2.01
2023-03-13T11:56:28.197Z,2.02
2023-03-13T11:57:28.262Z,2.03
2023-03-13T11:58:28.286Z,2.00
2023-03-13T11:59:28.350Z,2.02
2023-03-13T12:00:28.403Z,2.02
2023-03-13T12:01:28.481Z,2.01
2023-03-13T12:02:28.621Z,1.98
2023-03-13T12:03:28.588Z,2.07
2023-03-13T12:04:28.643Z,2.01
2023-03-13T12:05:28.862Z,2.01
2023-03-13T12:06:29.053Z,2.04
2023-03-13T12:07:28.784Z,2.02
2023-03-13T12:08:28.839Z,2.01
2023-03-13T12:09:28.894Z,1.96
2023-03-13T12:10:28.946Z,1.98
2023-03-13T12:11:28.957Z,1.99
2023-03-13T12:12:28.974Z,1.99
2023-03-13T12:13:29.020Z,1.97
2023-03-13T12:14:29.142Z,2.02
2023-03-13T12:15:29.970Z,1.99
2023-03-13T12:16:29.247Z,1.96
2023-03-13T12:17:29.277Z,1.97
2023-03-13T12:18:29.305Z,1.97
2023-03-13T12:19:29.339Z,1.96
2023-03-13T12:20:29.371Z,2.01
2023-03-13T12:21:29.438Z,1.92
2023-03-13T12:22:29.440Z,1.98
2023-03-13T12:24:29.516Z,1.94
2023-03-13T12:25:29.614Z,1.93
2023-03-13T12:26:29.590Z,1.92
2023-03-13T12:27:29.643Z,1.91
2023-03-13T12:28:29.669Z,1.91
2023-03-13T12:29:29.635Z,1.90
2023-03-13T12:30:29.687Z,1.91
2023-03-13T12:31:29.651Z,1.92
2023-03-13T12:33:29.690Z,1.89
2023-03-13T12:34:29.703Z,1.92
2023-03-13T12:35:29.716Z,1.87
2023-03-13T12:36:29.829Z,1.89
2023-03-13T12:37:29.753Z,1.86
2023-03-13T12:38:29.775Z,1.86
2023-03-13T12:39:29.800Z,1.84
2023-03-13T12:40:29.800Z,1.84
2023-03-13T12:41:29.806Z,1.86
2023-03-13T12:42:29.831Z,1.86
2023-03-13T12:44:29.862Z,1.87
2023-03-13T12:45:29.960Z,1.85
2023-03-13T12:46:29.930Z,1.86
2023-03-13T12:47:29.921Z,1.83
2023-03-13T12:48:29.986Z,1.84
2023-03-13T12:50:29.992Z,1.81
2023-03-13T12:51:30.091Z,1.80
2023-03-13T12:52:29.993Z,1.78
2023-03-13T12:53:30.060Z,1.84
2023-03-13T12:54:30.050Z,1.85
2023-03-13T12:55:30.058Z,1.82
2023-03-13T12:56:30.143Z,1.81
2023-03-13T12:57:30.146Z,1.80
2023-03-13T12:58:30.995Z,1.79
2023-03-13T12:59:30.129Z,1.79
2023-03-13T13:00:30.164Z,1.79
2023-03-13T13:01:30.185Z,1.79
2023-03-13T13:02:30.167Z,1.79
2023-03-13T13:03:30.193Z,1.77
2023-03-13T13:04:30.296Z,1.78
2023-03-13T13:05:30.202Z,1.78
2023-03-13T13:06:30.987Z,1.75
2023-03-13T13:07:30.211Z,1.75
2023-03-13T13:08:30.226Z,1.76
2023-03-13T13:09:30.239Z,1.74
2023-03-13T13:10:30.251Z,1.73
2023-03-13T13:11:30.264Z,1.73
2023-03-13T13:12:30.288Z,1.76
2023-03-13T13:13:30.355Z,1.71
2023-03-13T13:14:30.312Z,1.75
2023-03-13T13:15:30.342Z,1.76
2023-03-13T13:16:30.336Z,1.70
2023-03-13T13:17:30.371Z,1.74
2023-03-13T13:18:30.403Z,1.71
2023-03-13T13:19:30.400Z,1.72
2023-03-13T13:20:30.453Z,1.71
2023-03-13T13:21:30.434Z,1.70
2023-03-13T13:22:30.546Z,1.70
2023-03-13T13:23:30.471Z,1.70
2023-03-13T13:25:30.607Z,1.69
2023-03-13T13:26:30.527Z,1.69
2023-03-13T13:27:30.553Z,1.74
2023-03-13T13:28:30.629Z,1.71
2023-03-13T13:29:30.590Z,1.71
2023-03-13T13:30:30.617Z,1.68
2023-03-13T13:31:30.683Z,1.71
2023-03-13T13:32:30.659Z,1.64
2023-03-13T13:33:30.637Z,1.69
2023-03-13T13:34:30.654Z,1.63
2023-03-13T13:35:30.743Z,1.66
2023-03-13T13:36:30.658Z,1.66
2023-03-13T13:37:30.681Z,1.66
2023-03-13T13:38:30.717Z,1.66
2023-03-13T13:39:30.762Z,1.63
2023-03-13T13:40:30.839Z,1.62
2023-03-13T13:41:30.851Z,1.65
2023-03-13T13:42:30.814Z,1.65
2023-03-13T13:43:30.777Z,1.65
2023-03-13T13:44:30.798Z,1.62
2023-03-13T13:45:30.817Z,1.63
2023-03-13T13:46:30.873Z,1.62
2023-03-13T13:47:33.392Z,1.62
2023-03-13T13:48:30.831Z,1.64
2023-03-13T13:49:30.826Z,1.62
2023-03-13T13:50:30.840Z,1.63
2023-03-13T13:51:30.841Z,1.62
2023-03-13T13:52:30.859Z,1.62
2023-03-13T13:53:30.873Z,1.59
2023-03-13T13:54:30.879Z,1.61
2023-03-13T13:55:30.889Z,1.61
2023-03-13T13:56:30.914Z,1.59
2023-03-13T13:57:30.904Z,1.61
2023-03-13T13:58:30.917Z,1.61
2023-03-13T13:59:30.912Z,1.59
2023-03-13T14:00:30.932Z,1.60
2023-03-13T14:01:30.974Z,1.59
2023-03-13T14:02:30.928Z,1.60
2023-03-13T14:03:30.940Z,1.58
2023-03-13T14:04:30.925Z,1.56
2023-03-13T14:05:31.009Z,1.57
2023-03-13T14:06:30.988Z,1.58
2023-03-13T14:07:30.930Z,1.56
2023-03-13T14:08:30.917Z,1.57
2023-03-13T14:09:30.937Z,1.56
2023-03-13T14:10:30.928Z,1.56
2023-03-13T14:11:30.919Z,1.55
2023-03-13T14:12:30.954Z,1.55
2023-03-13T14:13:30.926Z,1.56
2023-03-13T14:14:30.949Z,1.51
2023-03-13T14:15:30.929Z,1.54
2023-03-13T14:16:30.969Z,1.52
2023-03-13T14:17:30.939Z,1.53
2023-03-13T14:18:30.931Z,1.55
2023-03-13T14:19:31.010Z,1.54
2023-03-13T14:20:30.935Z,1.51
2023-03-13T14:21:30.949Z,1.51
2023-03-13T14:22:31.029Z,1.52
2023-03-13T14:23:30.944Z,1.51
2023-03-13T14:24:30.955Z,1.53
2023-03-13T14:25:30.957Z,1.50
2023-03-13T14:26:30.945Z,1.49
2023-03-13T14:27:30.954Z,1.46
2023-03-13T14:28:30.967Z,1.54
2023-03-13T14:29:30.966Z,1.50
2023-03-13T14:30:30.960Z,1.50
2023-03-13T14:31:31.046Z,1.52
2023-03-13T14:32:31.006Z,1.48
2023-03-13T14:33:30.946Z,1.48
2023-03-13T14:34:32.775Z,1.50
2023-03-13T14:35:30.987Z,1.51
2023-03-13T14:36:30.964Z,1.52
2023-03-13T14:37:30.949Z,1.48
2023-03-13T14:38:30.945Z,1.47
2023-03-13T14:39:30.950Z,1.47
2023-03-13T14:40:30.947Z,1.48
2023-03-13T14:41:31.020Z,1.47
2023-03-13T14:42:30.951Z,1.46
2023-03-13T14:43:30.951Z,1.47
2023-03-13T14:44:30.954Z,1.48
2023-03-13T14:45:30.948Z,1.46
2023-03-13T14:46:31.008Z,1.48
2023-03-13T14:47:31.033Z,1.44
2023-03-13T14:48:31.002Z,1.45
2023-03-13T14:49:31.013Z,1.46
2023-03-13T14:50:30.958Z,1.46
2023-03-13T14:51:30.935Z,1.43
2023-03-13T14:52:30.996Z,1.43
2023-03-13T14:53:30.931Z,1.46
2023-03-13T14:54:31.000Z,1.43
2023-03-13T14:55:30.923Z,1.44
2023-03-13T14:56:30.931Z,1.44
2023-03-13T14:57:30.902Z,1.47
2023-03-13T14:58:30.912Z,1.42
2023-03-13T14:59:30.927Z,1.42
2023-03-13T15:00:30.908Z,1.45
2023-03-13T15:01:30.920Z,1.43
2023-03-13T15:02:30.906Z,1.41
2023-03-13T15:03:30.959Z,1.43
2023-03-13T15:04:31.558Z,1.41
2023-03-13T15:05:30.891Z,1.41
2023-03-13T15:06:30.978Z,1.42
2023-03-13T15:07:30.892Z,1.43
2023-03-13T15:08:30.908Z,1.43
2023-03-13T15:09:30.874Z,1.39
2023-03-13T15:10:30.883Z,1.39
2023-03-13T15:11:30.889Z,1.40
2023-03-13T15:12:30.874Z,1.42
2023-03-13T15:13:30.879Z,1.41
2023-03-13T15:14:30.870Z,1.41
2023-03-13T15:15:30.875Z,1.40
2023-03-13T15:16:30.961Z,1.42
2023-03-13T15:17:30.886Z,1.41
2023-03-13T15:18:30.870Z,1.39
2023-03-13T15:19:30.871Z,1.39
2023-03-13T15:20:30.880Z,1.40
2023-03-13T15:21:30.879Z,1.41
2023-03-13T15:22:30.906Z,1.39
2023-03-13T15:23:30.928Z,1.42
2023-03-13T15:24:30.946Z,1.40
2023-03-13T15:25:30.945Z,1.41
2023-03-13T15:26:30.958Z,1.40
2023-03-13T15:27:31.002Z,1.37
2023-03-13T15:28:31.043Z,1.40
2023-03-13T15:29:31.081Z,1.39
2023-03-13T15:30:31.128Z,1.39
2023-03-13T15:31:31.221Z,1.38
2023-03-13T15:32:31.190Z,1.41
2023-03-13T15:33:31.320Z,1.38
2023-03-13T15:34:31.279Z,1.39
2023-03-13T15:35:31.430Z,1.36
2023-03-13T15:36:31.384Z,1.38
2023-03-13T15:37:31.436Z,1.37
2023-03-13T15:38:31.469Z,1.41
2023-03-13T15:39:31.505Z,1.40
2023-03-13T15:40:31.536Z,1.38
2023-03-13T15:41:31.555Z,1.37
2023-03-13T15:42:31.582Z,1.37
2023-03-13T15:43:31.628Z,1.38
2023-03-13T15:44:31.624Z,1.36
2023-03-13T15:45:31.644Z,1.36
2023-03-13T15:46:31.730Z,1.37
2023-03-13T15:47:31.736Z,1.36
2023-03-13T15:48:31.787Z,1.36
2023-03-13T15:49:31.805Z,1.35
2023-03-13T15:50:31.844Z,1.36
2023-03-13T15:51:31.866Z,1.35
2023-03-13T15:52:31.910Z,1.35
2023-03-13T15:53:31.948Z,1.36
2023-03-13T15:54:32.037Z,1.37
2023-03-13T15:55:32.059Z,1.35
2023-03-13T15:56:32.106Z,1.37
2023-03-13T15:57:32.172Z,1.36
2023-03-13T15:58:32.218Z,1.35
2023-03-13T15:59:32.268Z,1.36
2023-03-13T16:00:32.300Z,1.34
2023-03-13T16:01:32.387Z,1.38
2023-03-13T16:02:32.383Z,1.36
2023-03-13T16:03:32.415Z,1.35
2023-03-13T16:04:32.516Z,1.35
2023-03-13T16:05:32.515Z,1.35
2023-03-13T16:06:32.533Z,1.35
2023-03-13T16:07:32.586Z,1.36
2023-03-13T16:08:36.046Z,1.35
2023-03-13T16:09:32.607Z,1.35
2023-03-13T16:10:32.620Z,1.35
2023-03-13T16:11:32.600Z,1.35
2023-03-13T16:12:32.600Z,1.37
2023-03-13T16:13:32.611Z,1.35
2023-03-13T16:14:32.612Z,1.37
2023-03-13T16:15:32.675Z,1.35
2023-03-13T16:16:34.956Z,1.36
2023-03-13T16:17:32.609Z,1.37
2023-03-13T16:18:32.614Z,1.40
2023-03-13T16:19:32.629Z,1.41
2023-03-13T16:20:32.701Z,1.37
2023-03-13T16:21:32.631Z,1.51
2023-03-13T16:22:32.629Z,1.60
2023-03-13T16:23:33.042Z,1.65
2023-03-13T16:24:33.474Z,1.80
2023-03-13T16:25:32.632Z,2.01
2023-03-13T16:26:33.617Z,2.19
2023-03-13T16:27:32.646Z,2.38
2023-03-13T16:28:32.645Z,2.44
2023-03-13T16:29:32.760Z,2.48
2023-03-13T16:30:32.646Z,2.45
2023-03-13T16:31:32.725Z,2.48
2023-03-13T16:32:32.672Z,2.42
2023-03-13T16:33:32.677Z,2.39
2023-03-13T16:34:32.650Z,2.37
2023-03-13T16:35:32.697Z,2.36
2023-03-13T16:36:32.673Z,2.33
2023-03-13T16:37:32.640Z,2.31
2023-03-13T16:38:32.656Z,2.28
2023-03-13T16:39:32.647Z,2.31
2023-03-13T16:40:32.640Z,2.31
2023-03-13T16:41:32.647Z,2.30
2023-03-13T16:42:32.682Z,2.30
2023-03-13T16:43:32.649Z,2.29
2023-03-13T16:44:32.650Z,2.26
2023-03-13T16:45:32.631Z,2.28
2023-03-13T16:46:32.739Z,2.33
2023-03-13T16:47:32.656Z,2.32
2023-03-13T16:48:32.781Z,2.26
2023-03-13T16:49:32.660Z,2.28
2023-03-13T16:50:32.657Z,2.28
2023-03-13T16:51:32.646Z,2.27
2023-03-13T16:53:32.649Z,2.29
2023-03-13T16:54:32.632Z,2.29
2023-03-13T16:55:32.643Z,2.29
2023-03-13T16:56:32.639Z,2.26
2023-03-13T16:57:32.640Z,2.29
2023-03-13T16:58:32.689Z,2.31
2023-03-13T16:59:32.705Z,2.25
2023-03-13T17:00:32.667Z,2.28
2023-03-13T17:01:32.638Z,2.24
2023-03-13T17:02:32.679Z,2.21
2023-03-13T17:03:32.641Z,2.24
2023-03-13T17:04:32.674Z,2.22
2023-03-13T17:05:32.635Z,2.21
2023-03-13T17:06:32.640Z,2.20
2023-03-13T17:07:32.660Z,2.20
2023-03-13T17:08:32.658Z,2.18
2023-03-13T17:09:32.662Z,2.22
2023-03-13T17:10:32.644Z,2.17
2023-03-13T17:11:32.646Z,2.18
2023-03-13T17:12:32.642Z,2.16
2023-03-13T17:14:32.659Z,2.19
2023-03-13T17:15:32.667Z,2.19
2023-03-13T17:16:32.653Z,2.17
2023-03-13T17:17:32.651Z,2.18
2023-03-13T17:18:32.650Z,2.18
2023-03-13T17:19:32.671Z,2.15
2023-03-13T17:20:32.662Z,2.13
2023-03-13T17:21:32.675Z,2.10
2023-03-13T17:22:32.680Z,2.12
2023-03-13T17:23:32.670Z,2.15
2023-03-13T17:24:32.691Z,2.14
2023-03-13T17:25:32.689Z,2.09
2023-03-13T17:26:32.722Z,2.08